createdAt,value
2022-11-27T00:01:29.583Z,4.70
2022-11-27T00:03:57.289Z,6.10
2022-11-27T00:06:28.331Z,6.10
2022-11-27T00:09:04.836Z,10.20
2022-11-27T00:11:32.630Z,14.90
2022-11-27T00:14:00.921Z,17.90
2022-11-27T00:16:28.877Z,16.90
2022-11-27T00:18:56.592Z,18.40
2022-11-27T00:21:30.084Z,20.90
2022-11-27T00:23:59.302Z,20.50
2022-11-27T00:26:27.790Z,18.40
2022-11-27T00:28:56.014Z,16.00
2022-11-27T00:31:31.548Z,14.50
2022-11-27T00:34:01.182Z,9.20
2022-11-27T00:36:29.736Z,9.50
2022-11-27T00:38:56.938Z,14.70
2022-11-27T00:41:27.382Z,14.40
2022-11-27T00:43:55.134Z,13.60
2022-11-27T00:46:28.981Z,24.70
2022-11-27T00:48:58.074Z,8.20
2022-11-27T00:51:25.980Z,10.30
2022-11-27T00:53:53.990Z,15.00
2022-11-27T00:56:35.889Z,15.30
2022-11-27T00:59:05.166Z,14.30
2022-11-27T01:01:35.972Z,10.70
2022-11-27T01:04:05.032Z,8.50
2022-11-27T01:06:32.412Z,7.00
2022-11-27T01:09:00.009Z,8.00
2022-11-27T01:11:29.864Z,7.20
2022-11-27T01:13:59.413Z,7.00
2022-11-27T01:16:29.027Z,8.50
2022-11-27T01:18:58.951Z,12.60
2022-11-27T01:21:28.938Z,16.70
2022-11-27T01:23:56.534Z,24.40
2022-11-27T01:26:23.975Z,22.50
2022-11-27T01:28:56.189Z,21.80
2022-11-27T01:31:26.483Z,22.10
2022-11-27T01:33:55.518Z,19.40
2022-11-27T01:36:23.395Z,15.70
2022-11-27T01:38:51.006Z,13.90
2022-11-27T01:41:33.352Z,33.40
2022-11-27T01:44:02.219Z,20.50
2022-11-27T01:46:38.354Z,14.30
2022-11-27T01:49:11.614Z,12.30
2022-11-27T01:51:51.666Z,14.90
2022-11-27T01:54:21.227Z,14.40
2022-11-27T01:56:52.713Z,17.40
2022-11-27T01:59:19.973Z,17.60
2022-11-27T02:01:47.231Z,16.10
2022-11-27T02:04:14.811Z,13.50
2022-11-27T02:06:41.971Z,18.20
2022-11-27T02:09:09.217Z,16.40
2022-11-27T02:12:10.637Z,15.20
2022-11-27T02:14:51.765Z,16.20
2022-11-27T02:17:46.995Z,15.40
2022-11-27T02:20:19.979Z,14.50
2022-11-27T02:23:12.119Z,14.40
2022-11-27T02:25:47.220Z,11.90
2022-11-27T02:28:45.152Z,9.80
2022-11-27T02:31:22.103Z,14.90
2022-11-27T02:33:54.323Z,8.10
2022-11-27T02:36:27.775Z,11.80
2022-11-27T02:39:25.013Z,25.30
2022-11-27T02:42:02.490Z,13.00
2022-11-27T02:44:33.855Z,11.90
2022-11-27T02:47:01.777Z,11.00
2022-11-27T02:49:29.355Z,13.40
2022-11-27T02:51:59.222Z,14.80
2022-11-27T02:54:31.162Z,14.70
2022-11-27T02:57:01.963Z,14.00
2022-11-27T02:59:31.822Z,13.10
2022-11-27T03:02:05.663Z,13.00
2022-11-27T03:04:41.490Z,10.80
2022-11-27T03:07:16.583Z,9.20
2022-11-27T03:09:49.933Z,7.70
2022-11-27T03:12:18.770Z,8.00
2022-11-27T03:14:47.931Z,9.90
2022-11-27T03:17:23.970Z,10.90
2022-11-27T03:20:17.263Z,10.40
2022-11-27T03:22:44.507Z,11.70
2022-11-27T03:25:11.798Z,14.50
2022-11-27T03:27:43.766Z,12.00
2022-11-27T03:30:12.326Z,9.60
2022-11-27T03:32:39.678Z,8.80
2022-11-27T03:35:09.870Z,9.10
2022-11-27T03:37:37.514Z,5.70
2022-11-27T03:40:06.726Z,9.10
2022-11-27T03:42:56.686Z,11.90
2022-11-27T03:45:30.180Z,14.10
2022-11-27T03:48:13.359Z,12.00
2022-11-27T03:51:10.947Z,7.00
2022-11-27T03:53:47.593Z,7.90
2022-11-27T03:56:43.307Z,10.50
2022-11-27T03:59:27.393Z,12.10
2022-11-27T04:01:54.612Z,14.40
2022-11-27T04:04:21.936Z,16.60
2022-11-27T04:06:49.126Z,16.40
2022-11-27T04:09:16.312Z,17.90
2022-11-27T04:11:43.647Z,19.20
2022-11-27T04:14:10.752Z,23.10
2022-11-27T04:16:37.939Z,25.70
2022-11-27T04:19:05.117Z,25.80
2022-11-27T04:21:32.232Z,27.30
2022-11-27T04:23:59.321Z,27.70
2022-11-27T04:26:26.526Z,27.20
2022-11-27T04:28:53.608Z,27.30
2022-11-27T04:31:20.865Z,26.70
2022-11-27T04:33:48.071Z,29.00
2022-11-27T04:36:15.403Z,30.80
2022-11-27T04:38:42.719Z,25.50
2022-11-27T04:41:09.915Z,22.80
2022-11-27T04:43:37.155Z,20.30
2022-11-27T04:46:04.397Z,18.90
2022-11-27T04:48:31.647Z,17.50
2022-11-27T04:50:58.952Z,18.40
2022-11-27T04:53:26.160Z,15.80
2022-11-27T04:55:53.363Z,15.30
2022-11-27T04:58:20.571Z,15.40
2022-11-27T05:00:47.835Z,14.40
2022-11-27T05:03:15.103Z,15.60
2022-11-27T05:05:42.397Z,16.50
2022-11-27T05:08:09.571Z,17.60
2022-11-27T05:10:36.865Z,18.20
2022-11-27T05:13:04.100Z,20.30
2022-11-27T05:15:31.313Z,19.20
2022-11-27T05:17:58.502Z,15.00
2022-11-27T05:20:25.703Z,9.50
2022-11-27T05:22:52.948Z,8.90
2022-11-27T05:25:20.139Z,9.00
2022-11-27T05:27:47.391Z,9.50
2022-11-27T05:30:14.654Z,13.10
2022-11-27T05:32:41.910Z,14.30
2022-11-27T05:35:09.507Z,15.40
2022-11-27T05:37:36.667Z,16.00
2022-11-27T05:40:04.190Z,16.60
2022-11-27T05:42:31.362Z,13.80
2022-11-27T05:44:58.806Z,12.30
2022-11-27T05:47:26.075Z,12.20
2022-11-27T05:49:53.417Z,11.70
2022-11-27T05:52:20.663Z,13.20
2022-11-27T05:54:47.869Z,16.10
2022-11-27T05:57:15.059Z,20.20
2022-11-27T05:59:42.250Z,16.10
2022-11-27T06:02:09.532Z,17.80
2022-11-27T06:04:36.855Z,11.30
2022-11-27T06:07:04.076Z,9.90
2022-11-27T06:09:31.283Z,11.20
2022-11-27T06:11:58.669Z,13.60
2022-11-27T06:14:25.849Z,15.20
2022-11-27T06:16:53.130Z,17.30
2022-11-27T06:19:20.326Z,21.00
2022-11-27T06:21:47.757Z,26.00
2022-11-27T06:24:15.177Z,27.10
2022-11-27T06:26:42.942Z,31.50
2022-11-27T06:29:10.400Z,35.50
2022-11-27T06:31:38.086Z,37.10
2022-11-27T06:34:05.827Z,34.60
2022-11-27T06:36:35.698Z,33.30
2022-11-27T06:39:05.259Z,40.20
2022-11-27T06:41:32.646Z,30.80
2022-11-27T06:44:01.443Z,31.80
2022-11-27T06:46:30.106Z,34.70
2022-11-27T06:48:58.673Z,31.60
2022-11-27T06:51:27.602Z,29.80
2022-11-27T06:53:54.855Z,30.50
2022-11-27T06:56:25.481Z,28.90
2022-11-27T06:58:58.730Z,27.80
2022-11-27T07:01:27.536Z,30.10
2022-11-27T07:03:55.543Z,32.00
2022-11-27T07:06:24.551Z,35.60
2022-11-27T07:08:52.398Z,34.50
2022-11-27T07:11:25.723Z,34.60
2022-11-27T07:13:57.894Z,34.30
2022-11-27T07:16:26.243Z,39.30
2022-11-27T07:18:56.326Z,43.20
2022-11-27T07:21:24.427Z,47.20
2022-11-27T07:23:51.890Z,51.40
2022-11-27T07:26:24.267Z,52.50
2022-11-27T07:28:52.464Z,52.40
2022-11-27T07:31:22.473Z,52.70
2022-11-27T07:33:52.000Z,50.60
2022-11-27T07:36:25.399Z,52.20
2022-11-27T07:38:53.020Z,51.50
2022-11-27T07:41:21.109Z,51.30
2022-11-27T07:43:48.802Z,42.40
2022-11-27T07:46:22.338Z,31.60
2022-11-27T07:48:49.811Z,35.80
2022-11-27T07:51:19.658Z,38.30
2022-11-27T07:53:47.324Z,36.20
2022-11-27T07:56:15.903Z,45.60
2022-11-27T07:58:43.247Z,51.40
2022-11-27T08:01:16.149Z,55.70
2022-11-27T08:03:44.405Z,58.60
2022-11-27T08:06:19.243Z,63.00
2022-11-27T08:08:47.132Z,69.90
2022-11-27T08:11:25.937Z,71.50
2022-11-27T08:14:00.940Z,73.80
2022-11-27T08:16:29.426Z,75.70
2022-11-27T08:18:57.348Z,68.70
2022-11-27T08:21:24.925Z,55.20
2022-11-27T08:23:52.492Z,35.20
2022-11-27T08:26:21.040Z,36.70
2022-11-27T08:28:48.254Z,43.00
2022-11-27T08:31:15.805Z,45.80
2022-11-27T08:33:43.036Z,46.30
2022-11-27T08:36:16.299Z,46.10
2022-11-27T08:38:46.213Z,45.40
2022-11-27T08:41:13.714Z,43.10
2022-11-27T08:43:40.948Z,34.30
2022-11-27T08:46:08.464Z,30.70
2022-11-27T08:48:36.168Z,24.30
2022-11-27T08:51:09.008Z,31.80
2022-11-27T08:53:37.839Z,21.70
2022-11-27T08:56:11.851Z,17.40
2022-11-27T08:58:41.097Z,19.40
2022-11-27T09:01:35.724Z,20.10
2022-11-27T09:04:03.786Z,25.10
2022-11-27T09:06:36.310Z,10.50
2022-11-27T09:09:05.731Z,14.00
2022-11-27T09:11:34.549Z,12.30
2022-11-27T09:14:03.822Z,12.50
2022-11-27T09:16:31.549Z,9.60
2022-11-27T09:18:59.064Z,10.50
2022-11-27T09:21:28.358Z,12.60
2022-11-27T09:23:57.080Z,12.20
2022-11-27T09:26:26.446Z,11.70
2022-11-27T09:28:55.024Z,11.70
2022-11-27T09:31:23.141Z,11.00
2022-11-27T09:33:50.938Z,6.80
2022-11-27T09:36:21.160Z,5.80
2022-11-27T09:38:48.548Z,3.20
2022-11-27T09:41:44.852Z,2.80
2022-11-27T09:44:30.260Z,4.90
2022-11-27T09:47:01.551Z,5.70
2022-11-27T09:49:51.317Z,18.80
2022-11-27T09:52:24.592Z,3.20
2022-11-27T09:55:28.278Z,3.40
2022-11-27T09:58:01.856Z,3.80
2022-11-27T10:00:29.140Z,2.60
2022-11-27T10:02:56.720Z,3.20
2022-11-27T10:05:43.377Z,2.40
2022-11-27T10:08:26.201Z,1.50
2022-11-27T10:11:14.360Z,1.90
2022-11-27T10:13:56.576Z,1.00
2022-11-27T10:16:44.591Z,1.00
2022-11-27T10:19:26.235Z,1.00
2022-11-27T10:22:01.738Z,1.00
2022-11-27T10:24:36.588Z,1.00
2022-11-27T10:27:14.639Z,1.20
2022-11-27T10:29:54.031Z,2.10
2022-11-27T10:35:19.696Z,1.20
2022-11-27T10:37:52.951Z,1.00
2022-11-27T10:40:25.963Z,1.00
2022-11-27T10:43:11.028Z,12.30
2022-11-27T10:46:05.125Z,1.00
2022-11-27T10:48:33.642Z,1.00
2022-11-27T10:51:01.271Z,1.00
2022-11-27T10:53:37.454Z,1.00
2022-11-27T10:56:18.646Z,1.00
2022-11-27T10:59:05.947Z,1.00
2022-11-27T11:01:48.216Z,1.00
2022-11-27T11:04:41.477Z,1.00
2022-11-27T11:07:38.086Z,1.00
2022-11-27T11:10:23.991Z,1.00
2022-11-27T11:13:23.786Z,1.00
2022-11-27T11:15:51.974Z,1.00
2022-11-27T11:18:24.839Z,1.00
2022-11-27T11:20:55.551Z,1.00
2022-11-27T11:23:32.990Z,1.00
2022-11-27T11:26:22.457Z,1.00
2022-11-27T11:28:55.795Z,1.00
2022-11-27T11:31:31.082Z,1.00
2022-11-27T11:34:27.606Z,1.00
2022-11-27T11:37:08.425Z,1.00
2022-11-27T11:39:45.436Z,1.00
2022-11-27T11:42:21.427Z,1.00
2022-11-27T11:45:11.783Z,1.00
2022-11-27T11:47:47.401Z,1.00
2022-11-27T11:50:31.800Z,1.00
2022-11-27T11:53:36.407Z,1.00
2022-11-27T11:56:49.585Z,1.00
2022-11-27T11:59:45.180Z,1.00
2022-11-27T12:02:32.274Z,1.00
2022-11-27T12:05:21.560Z,1.00
2022-11-27T12:08:07.413Z,1.00
2022-11-27T12:11:22.784Z,1.00
2022-11-27T12:14:04.929Z,1.00
2022-11-27T12:17:02.786Z,1.00
2022-11-27T12:20:02.374Z,1.00
2022-11-27T12:22:40.427Z,1.00
2022-11-27T12:25:22.686Z,1.00
2022-11-27T12:28:11.284Z,1.00
2022-11-27T12:30:50.033Z,1.00
2022-11-27T12:33:38.353Z,1.00
2022-11-27T12:36:20.387Z,1.00
2022-11-27T12:38:50.616Z,1.00
2022-11-27T12:41:44.291Z,1.00
2022-11-27T12:44:48.924Z,1.00
2022-11-27T12:47:24.483Z,1.00
2022-11-27T12:50:03.210Z,1.00
2022-11-27T12:52:38.831Z,1.00
2022-11-27T12:55:12.745Z,1.00
2022-11-27T12:57:49.864Z,1.00
2022-11-27T13:00:24.086Z,1.00
2022-11-27T13:03:00.106Z,1.00
2022-11-27T13:05:32.285Z,1.00
2022-11-27T13:08:22.828Z,1.00
2022-11-27T13:10:58.561Z,1.00
2022-11-27T13:13:34.241Z,1.00
2022-11-27T13:16:06.555Z,1.00
2022-11-27T13:19:16.287Z,1.00
2022-11-27T13:21:46.509Z,1.00
2022-11-27T13:24:14.300Z,1.00
2022-11-27T13:27:06.703Z,1.00
2022-11-27T13:29:48.816Z,1.00
2022-11-27T13:32:23.826Z,1.00
2022-11-27T13:34:53.309Z,1.00
2022-11-27T13:37:33.132Z,1.00
2022-11-27T13:40:21.817Z,1.00
2022-11-27T13:42:55.717Z,1.00
2022-11-27T13:45:30.323Z,1.00
2022-11-27T13:47:59.841Z,1.00
2022-11-27T13:50:31.368Z,1.00
2022-11-27T13:53:07.471Z,1.00
2022-11-27T13:55:37.168Z,1.00
2022-11-27T13:58:07.234Z,1.00
2022-11-27T14:00:43.618Z,1.00
2022-11-27T14:03:26.661Z,1.00
2022-11-27T14:05:54.268Z,1.00
2022-11-27T14:08:30.043Z,1.00
2022-11-27T14:11:08.879Z,1.00
2022-11-27T14:13:54.407Z,1.00
2022-11-27T14:16:32.855Z,1.00
2022-11-27T14:19:06.813Z,1.00
2022-11-27T14:21:41.786Z,1.00
2022-11-27T14:24:44.037Z,1.00
2022-11-27T14:27:35.782Z,1.00
2022-11-27T14:30:39.795Z,1.00
2022-11-27T14:33:22.328Z,1.00
2022-11-27T14:35:55.355Z,1.00
2022-11-27T14:38:23.967Z,1.00
2022-11-27T14:40:55.882Z,1.00
2022-11-27T14:43:26.163Z,1.00
2022-11-27T14:45:56.820Z,1.00
2022-11-27T14:48:26.660Z,1.00
2022-11-27T14:50:55.904Z,1.00
2022-11-27T14:53:25.587Z,1.00
2022-11-27T14:55:56.263Z,1.00
2022-11-27T14:58:29.982Z,1.00
2022-11-27T15:01:01.286Z,1.00
2022-11-27T15:03:29.385Z,1.00
2022-11-27T15:06:05.460Z,1.00
2022-11-27T15:08:36.196Z,1.00
2022-11-27T15:11:05.409Z,1.00
2022-11-27T15:13:37.473Z,1.00
2022-11-27T15:16:13.244Z,1.00
2022-11-27T15:18:42.345Z,1.00
2022-11-27T15:21:17.917Z,1.00
2022-11-27T15:23:49.867Z,1.00
2022-11-27T15:26:29.663Z,1.00
2022-11-27T15:28:59.848Z,1.00
2022-11-27T15:31:33.083Z,1.00
2022-11-27T15:34:03.905Z,1.00
2022-11-27T15:36:41.909Z,1.00
2022-11-27T15:39:36.868Z,1.00
2022-11-27T15:42:08.918Z,1.00
2022-11-27T15:44:36.287Z,1.00
2022-11-27T15:47:05.897Z,1.00
2022-11-27T15:49:33.714Z,1.00
2022-11-27T15:52:01.001Z,1.00
2022-11-27T15:54:28.300Z,1.00
2022-11-27T15:56:55.517Z,1.00
2022-11-27T15:59:22.964Z,1.00
2022-11-27T16:01:50.295Z,1.00
2022-11-27T16:04:17.797Z,1.00
2022-11-27T16:06:44.963Z,1.00
2022-11-27T16:09:12.308Z,1.00
2022-11-27T16:11:39.577Z,1.00
2022-11-27T16:14:07.451Z,1.00
2022-11-27T16:16:35.425Z,1.00
2022-11-27T16:19:06.371Z,1.00
2022-11-27T16:21:35.704Z,1.00
2022-11-27T16:24:06.543Z,1.00
2022-11-27T16:26:34.440Z,1.00
2022-11-27T16:29:01.712Z,1.00
2022-11-27T16:31:29.187Z,1.00
2022-11-27T16:33:56.500Z,1.00
2022-11-27T16:36:24.152Z,1.00
2022-11-27T16:38:54.398Z,1.00
2022-11-27T16:41:22.435Z,1.00
2022-11-27T16:43:52.039Z,1.00
2022-11-27T16:46:22.341Z,1.00
2022-11-27T16:48:50.119Z,1.00
2022-11-27T16:51:23.557Z,1.00
2022-11-27T16:53:55.418Z,1.00
2022-11-27T16:56:25.112Z,1.00
2022-11-27T16:58:54.060Z,1.00
2022-11-27T17:01:30.462Z,1.00
2022-11-27T17:03:58.042Z,1.00
2022-11-27T17:06:27.773Z,1.00
2022-11-27T17:08:56.740Z,1.00
2022-11-27T17:11:27.311Z,1.00
2022-11-27T17:13:58.131Z,1.00
2022-11-27T17:16:25.701Z,1.00
2022-11-27T17:18:53.333Z,1.90
2022-11-27T17:21:25.293Z,2.60
2022-11-27T17:23:55.922Z,1.50
2022-11-27T17:26:24.411Z,1.20
2022-11-27T17:28:55.590Z,1.50
2022-11-27T17:31:25.707Z,1.00
2022-11-27T17:33:56.733Z,1.00
2022-11-27T17:36:31.407Z,1.00
2022-11-27T17:39:05.663Z,1.00
2022-11-27T17:41:33.437Z,1.00
2022-11-27T17:44:00.731Z,1.00
2022-11-27T17:46:29.309Z,1.00
2022-11-27T17:48:59.999Z,1.00
2022-11-27T17:51:29.967Z,1.00
2022-11-27T17:54:02.347Z,1.00
2022-11-27T17:56:30.180Z,1.00
2022-11-27T17:58:58.041Z,1.50
2022-11-27T18:01:27.117Z,4.30
2022-11-27T18:04:00.619Z,6.10
2022-11-27T18:06:28.021Z,4.90
2022-11-27T18:08:57.435Z,4.90
2022-11-27T18:11:28.451Z,6.90
2022-11-27T18:13:55.927Z,8.00
2022-11-27T18:16:29.770Z,9.30
2022-11-27T18:18:58.485Z,7.30
2022-11-27T18:21:30.428Z,5.90
2022-11-27T18:29:34.680Z,4.70
2022-11-27T18:32:02.085Z,4.90
2022-11-27T18:34:29.326Z,5.00
2022-11-27T18:36:59.501Z,6.00
2022-11-27T18:39:27.895Z,8.10
2022-11-27T18:41:56.559Z,8.40
2022-11-27T18:44:23.758Z,6.60
2022-11-27T18:46:51.276Z,5.50
2022-11-27T18:49:18.979Z,5.50
2022-11-27T18:51:46.269Z,4.70
2022-11-27T18:54:13.438Z,4.30
2022-11-27T18:56:40.739Z,4.30
2022-11-27T18:59:07.951Z,5.20
2022-11-27T19:01:42.023Z,5.20
2022-11-27T19:04:11.082Z,6.20
2022-11-27T19:06:42.200Z,6.30
2022-11-27T19:09:11.122Z,8.30
2022-11-27T19:11:38.817Z,8.70
2022-11-27T19:14:06.355Z,8.20
2022-11-27T19:16:36.708Z,6.60
2022-11-27T19:19:05.269Z,7.90
2022-11-27T19:21:33.291Z,6.10
2022-11-27T19:24:02.656Z,5.60
2022-11-27T19:26:32.629Z,4.90
2022-11-27T19:29:02.626Z,6.80
2022-11-27T19:31:33.171Z,6.50
2022-11-27T19:34:02.673Z,6.00
2022-11-27T19:36:31.568Z,7.70
2022-11-27T19:39:04.376Z,8.60
2022-11-27T19:41:31.787Z,10.00
2022-11-27T19:44:06.636Z,9.70
2022-11-27T19:46:36.934Z,11.00
2022-11-27T19:49:12.897Z,11.30
2022-11-27T19:51:40.623Z,10.10
2022-11-27T19:54:10.566Z,7.80
2022-11-27T19:56:40.105Z,9.40
2022-11-27T19:59:07.895Z,10.70
2022-11-27T20:01:37.626Z,12.10
2022-11-27T20:04:07.267Z,13.00
2022-11-27T20:06:36.051Z,13.10
2022-11-27T20:09:05.703Z,14.10
2022-11-27T20:11:35.142Z,11.10
2022-11-27T20:14:04.646Z,10.30
2022-11-27T20:16:32.827Z,8.50
2022-11-27T20:19:01.916Z,7.50
2022-11-27T20:21:29.479Z,13.50
2022-11-27T20:23:57.319Z,17.30
2022-11-27T20:26:27.277Z,15.00
2022-11-27T20:28:55.399Z,18.60
2022-11-27T20:31:29.162Z,16.80
2022-11-27T20:34:00.631Z,15.60
2022-11-27T20:36:29.883Z,15.40
2022-11-27T20:38:59.309Z,14.20
2022-11-27T20:41:27.352Z,13.40
2022-11-27T20:43:57.333Z,13.20
2022-11-27T20:46:25.695Z,13.60
2022-11-27T20:48:54.001Z,12.90
2022-11-27T20:51:24.397Z,12.70
2022-11-27T20:53:51.930Z,11.30
2022-11-27T20:56:20.362Z,12.00
2022-11-27T20:58:48.732Z,10.70
2022-11-27T21:01:17.363Z,12.50
2022-11-27T21:03:46.302Z,11.00
2022-11-27T21:06:15.370Z,9.20
2022-11-27T21:08:42.761Z,10.20
2022-11-27T21:11:27.879Z,9.90
2022-11-27T21:13:57.301Z,10.90
2022-11-27T21:16:27.350Z,8.80
2022-11-27T21:18:59.452Z,8.10
2022-11-27T21:21:26.952Z,6.70
2022-11-27T21:23:54.903Z,7.70
2022-11-27T21:26:22.541Z,7.20
2022-11-27T21:28:50.378Z,8.60
2022-11-27T21:31:26.019Z,8.90
2022-11-27T21:33:55.144Z,9.80
2022-11-27T21:36:25.736Z,9.30
2022-11-27T21:38:53.110Z,8.60
2022-11-27T21:41:20.948Z,8.60
2022-11-27T21:43:49.145Z,10.10
2022-11-27T21:46:19.063Z,10.40
2022-11-27T21:48:47.546Z,11.50
2022-11-27T21:51:15.834Z,10.90
2022-11-27T21:53:44.772Z,10.60
2022-11-27T21:56:14.615Z,11.80
2022-11-27T21:58:42.802Z,12.80
2022-11-27T22:01:15.658Z,15.40
2022-11-27T22:03:43.495Z,10.50
2022-11-27T22:06:13.612Z,9.40
2022-11-27T22:08:42.458Z,9.90
2022-11-27T22:11:12.413Z,8.90
2022-11-27T22:13:39.758Z,8.30
2022-11-27T22:16:17.848Z,7.20
2022-11-27T22:18:45.330Z,7.70
2022-11-27T22:21:13.800Z,6.80
2022-11-27T22:23:41.853Z,9.10
2022-11-27T22:26:14.345Z,11.10
2022-11-27T22:28:41.821Z,10.80
2022-11-27T22:31:29.998Z,7.50
2022-11-27T22:33:57.963Z,7.80
2022-11-27T22:36:31.354Z,12.60
2022-11-27T22:39:00.926Z,13.40
2022-11-27T22:41:30.509Z,13.50
2022-11-27T22:44:00.318Z,11.10
2022-11-27T22:46:32.662Z,10.50
2022-11-27T22:49:02.323Z,11.30
2022-11-27T22:51:31.474Z,13.00
2022-11-27T22:53:58.968Z,16.50
2022-11-27T22:56:26.264Z,10.50
2022-11-27T22:59:11.412Z,10.90
2022-11-27T23:01:41.049Z,14.20
2022-11-27T23:04:08.437Z,15.30
2022-11-27T23:06:36.114Z,15.20
2022-11-27T23:09:03.686Z,14.10
2022-11-27T23:11:31.001Z,13.70
2022-11-27T23:13:59.662Z,15.90
2022-11-27T23:16:27.101Z,16.70
2022-11-27T23:18:54.358Z,16.10
2022-11-27T23:21:24.042Z,13.30
2022-11-27T23:23:51.803Z,11.80
2022-11-27T23:26:23.772Z,12.20
2022-11-27T23:28:52.703Z,14.50
2022-11-27T23:31:29.808Z,11.40
2022-11-27T23:33:58.840Z,9.90
2022-11-27T23:36:26.892Z,8.90
2022-11-27T23:38:54.067Z,10.60
2022-11-27T23:41:24.057Z,10.70
2022-11-27T23:43:53.057Z,11.30
2022-11-27T23:46:22.946Z,13.30
2022-11-27T23:48:50.567Z,15.30
2022-11-27T23:51:20.792Z,14.90
2022-11-27T23:53:48.277Z,15.40
2022-11-27T23:56:18.183Z,10.90
2022-11-27T23:58:47.651Z,8.80
